sensor_id;sensor_type;location;lat;lon;timestamp;temperature;humidity
59855;DHT22;45732;52.850;6.896;2023-07-08T00:00:51;18.20;99.90
59855;DHT22;45732;52.850;6.896;2023-07-08T00:05:45;18.20;99.90
59855;DHT22;45732;52.850;6.896;2023-07-08T00:08:15;18.20;99.90
59855;DHT22;45732;52.850;6.896;2023-07-08T00:10:41;18.10;99.90
59855;DHT22;45732;52.850;6.896;2023-07-08T00:13:09;18.10;99.90
59855;DHT22;45732;52.850;6.896;2023-07-08T00:15:35;18.10;99.90
59855;DHT22;45732;52.850;6.896;2023-07-08T00:18:15;18.00;99.90
59855;DHT22;45732;52.850;6.896;2023-07-08T00:20:49;17.90;99.90
59855;DHT22;45732;52.850;6.896;2023-07-08T00:23:15;17.80;99.90
59855;DHT22;45732;52.850;6.896;2023-07-08T00:25:41;17.80;99.90
59855;DHT22;45732;52.850;6.896;2023-07-08T00:28:21;17.70;99.90
59855;DHT22;45732;52.850;6.896;2023-07-08T00:30:47;17.70;99.90
59855;DHT22;45732;52.850;6.896;2023-07-08T00:33:13;17.60;99.90
59855;DHT22;45732;52.850;6.896;2023-07-08T00:35:40;17.60;99.90
59855;DHT22;45732;52.850;6.896;2023-07-08T00:38:27;17.60;99.90
59855;DHT22;45732;52.850;6.896;2023-07-08T00:43:37;17.60;99.90
59855;DHT22;45732;52.850;6.896;2023-07-08T00:48:45;17.50;99.90
59855;DHT22;45732;52.850;6.896;2023-07-08T00:51:11;17.50;99.90
59855;DHT22;45732;52.850;6.896;2023-07-08T00:53:38;17.40;99.90
59855;DHT22;45732;52.850;6.896;2023-07-08T00:59:10;17.40;99.90
59855;DHT22;45732;52.850;6.896;2023-07-08T01:01:40;17.30;99.90
59855;DHT22;45732;52.850;6.896;2023-07-08T01:04:11;17.20;99.90
59855;DHT22;45732;52.850;6.896;2023-07-08T01:06:42;17.20;99.90
59855;DHT22;45732;52.850;6.896;2023-07-08T01:09:11;17.10;99.90
59855;DHT22;45732;52.850;6.896;2023-07-08T01:11:40;17.00;99.90
59855;DHT22;45732;52.850;6.896;2023-07-08T01:14:09;16.90;99.90
59855;DHT22;45732;52.850;6.896;2023-07-08T01:16:36;16.80;99.90
59855;DHT22;45732;52.850;6.896;2023-07-08T01:19:04;16.80;99.90
59855;DHT22;45732;52.850;6.896;2023-07-08T01:21:37;16.80;99.90
59855;DHT22;45732;52.850;6.896;2023-07-08T01:24:10;16.70;99.90
59855;DHT22;45732;52.850;6.896;2023-07-08T01:26:42;16.70;99.90
59855;DHT22;45732;52.850;6.896;2023-07-08T01:29:10;16.70;99.90
59855;DHT22;45732;52.850;6.896;2023-07-08T01:31:37;16.70;99.90
59855;DHT22;45732;52.850;6.896;2023-07-08T01:34:03;16.60;99.90
59855;DHT22;45732;52.850;6.896;2023-07-08T01:36:34;16.70;99.90
59855;DHT22;45732;52.850;6.896;2023-07-08T01:39:01;16.60;99.90
59855;DHT22;45732;52.850;6.896;2023-07-08T01:41:28;16.60;99.90
59855;DHT22;45732;52.850;6.896;2023-07-08T01:43:54;16.60;99.90
59855;DHT22;45732;52.850;6.896;2023-07-08T01:46:23;16.50;99.90
59855;DHT22;45732;52.850;6.896;2023-07-08T01:48:55;16.60;99.90
59855;DHT22;45732;52.850;6.896;2023-07-08T01:51:22;16.50;99.90
59855;DHT22;45732;52.850;6.896;2023-07-08T01:53:48;16.50;99.90
59855;DHT22;45732;52.850;6.896;2023-07-08T01:56:14;16.50;99.90
59855;DHT22;45732;52.850;6.896;2023-07-08T01:58:40;16.50;99.90
59855;DHT22;45732;52.850;6.896;2023-07-08T02:01:06;16.50;99.90
59855;DHT22;45732;52.850;6.896;2023-07-08T02:03:32;16.50;99.90
59855;DHT22;45732;52.850;6.896;2023-07-08T02:05:58;16.30;99.90
59855;DHT22;45732;52.850;6.896;2023-07-08T02:08:24;16.40;99.90
59855;DHT22;45732;52.850;6.896;2023-07-08T02:10:52;16.40;99.90
59855;DHT22;45732;52.850;6.896;2023-07-08T02:13:19;16.40;99.90
59855;DHT22;45732;52.850;6.896;2023-07-08T02:15:45;16.40;99.90
59855;DHT22;45732;52.850;6.896;2023-07-08T02:18:11;16.30;99.90
59855;DHT22;45732;52.850;6.896;2023-07-08T02:20:37;16.30;99.90
59855;DHT22;45732;52.850;6.896;2023-07-08T02:23:02;16.30;99.90
59855;DHT22;45732;52.850;6.896;2023-07-08T02:25:28;16.30;99.90
59855;DHT22;45732;52.850;6.896;2023-07-08T02:27:54;16.30;99.90
59855;DHT22;45732;52.850;6.896;2023-07-08T02:30:23;16.20;99.90
59855;DHT22;45732;52.850;6.896;2023-07-08T02:32:49;16.10;99.90
59855;DHT22;45732;52.850;6.896;2023-07-08T02:35:24;16.10;99.90
59855;DHT22;45732;52.850;6.896;2023-07-08T02:37:50;16.00;99.90
59855;DHT22;45732;52.850;6.896;2023-07-08T02:40:17;16.00;99.90
59855;DHT22;45732;52.850;6.896;2023-07-08T02:42:42;16.00;99.90
59855;DHT22;45732;52.850;6.896;2023-07-08T02:45:08;16.00;99.90
59855;DHT22;45732;52.850;6.896;2023-07-08T02:47:34;16.00;99.90
59855;DHT22;45732;52.850;6.896;2023-07-08T02:50:00;16.00;99.90
59855;DHT22;45732;52.850;6.896;2023-07-08T02:52:25;16.00;99.90
59855;DHT22;45732;52.850;6.896;2023-07-08T02:54:51;15.90;99.90
59855;DHT22;45732;52.850;6.896;2023-07-08T02:57:16;15.90;99.90
59855;DHT22;45732;52.850;6.896;2023-07-08T02:59:42;15.90;99.90
59855;DHT22;45732;52.850;6.896;2023-07-08T03:02:08;15.90;99.90
59855;DHT22;45732;52.850;6.896;2023-07-08T03:04:33;15.90;99.90
59855;DHT22;45732;52.850;6.896;2023-07-08T03:07:04;15.80;99.90
59855;DHT22;45732;52.850;6.896;2023-07-08T03:09:30;15.70;99.90
59855;DHT22;45732;52.850;6.896;2023-07-08T03:11:58;15.70;99.90
59855;DHT22;45732;52.850;6.896;2023-07-08T03:14:24;15.70;99.90
59855;DHT22;45732;52.850;6.896;2023-07-08T03:16:50;15.70;99.90
59855;DHT22;45732;52.850;6.896;2023-07-08T03:19:15;15.70;99.90
59855;DHT22;45732;52.850;6.896;2023-07-08T03:21:42;15.70;99.90
59855;DHT22;45732;52.850;6.896;2023-07-08T03:24:12;15.70;99.90
59855;DHT22;45732;52.850;6.896;2023-07-08T03:26:38;15.60;99.90
59855;DHT22;45732;52.850;6.896;2023-07-08T03:29:05;15.60;99.90
59855;DHT22;45732;52.850;6.896;2023-07-08T03:31:31;15.60;99.90
59855;DHT22;45732;52.850;6.896;2023-07-08T03:33:56;15.60;99.90
59855;DHT22;45732;52.850;6.896;2023-07-08T03:36:22;15.60;99.90
59855;DHT22;45732;52.850;6.896;2023-07-08T03:38:52;15.60;99.90
59855;DHT22;45732;52.850;6.896;2023-07-08T03:41:19;15.60;99.90
59855;DHT22;45732;52.850;6.896;2023-07-08T03:43:44;15.50;99.90
59855;DHT22;45732;52.850;6.896;2023-07-08T03:46:11;15.50;99.90
59855;DHT22;45732;52.850;6.896;2023-07-08T03:48:38;15.50;99.90
59855;DHT22;45732;52.850;6.896;2023-07-08T03:51:06;15.50;99.90
59855;DHT22;45732;52.850;6.896;2023-07-08T03:53:33;15.50;99.90
59855;DHT22;45732;52.850;6.896;2023-07-08T03:55:59;15.50;99.90
59855;DHT22;45732;52.850;6.896;2023-07-08T03:58:25;15.60;99.90
59855;DHT22;45732;52.850;6.896;2023-07-08T04:00:50;15.60;99.90
59855;DHT22;45732;52.850;6.896;2023-07-08T04:03:16;15.60;99.90
59855;DHT22;45732;52.850;6.896;2023-07-08T04:05:42;15.60;99.90
59855;DHT22;45732;52.850;6.896;2023-07-08T04:08:08;15.70;99.90
59855;DHT22;45732;52.850;6.896;2023-07-08T04:10:33;15.70;99.90
59855;DHT22;45732;52.850;6.896;2023-07-08T04:12:59;15.80;99.90
59855;DHT22;45732;52.850;6.896;2023-07-08T04:15:25;15.80;99.90
59855;DHT22;45732;52.850;6.896;2023-07-08T04:17:51;15.80;99.90
59855;DHT22;45732;52.850;6.896;2023-07-08T04:20:18;15.80;99.90
59855;DHT22;45732;52.850;6.896;2023-07-08T04:22:44;15.80;99.90
59855;DHT22;45732;52.850;6.896;2023-07-08T04:25:11;15.80;99.90
59855;DHT22;45732;52.850;6.896;2023-07-08T04:27:38;15.80;99.90
59855;DHT22;45732;52.850;6.896;2023-07-08T04:30:04;15.80;99.90
59855;DHT22;45732;52.850;6.896;2023-07-08T04:32:30;15.80;99.90
59855;DHT22;45732;52.850;6.896;2023-07-08T04:34:56;15.90;99.90
59855;DHT22;45732;52.850;6.896;2023-07-08T04:37:22;15.90;99.90
59855;DHT22;45732;52.850;6.896;2023-07-08T04:39:47;15.90;99.90
59855;DHT22;45732;52.850;6.896;2023-07-08T04:42:14;16.00;99.90
59855;DHT22;45732;52.850;6.896;2023-07-08T04:44:42;16.00;99.90
59855;DHT22;45732;52.850;6.896;2023-07-08T04:47:08;16.10;99.90
59855;DHT22;45732;52.850;6.896;2023-07-08T04:49:34;16.10;99.90
59855;DHT22;45732;52.850;6.896;2023-07-08T04:52:00;16.20;99.90
59855;DHT22;45732;52.850;6.896;2023-07-08T04:54:28;16.20;99.90
59855;DHT22;45732;52.850;6.896;2023-07-08T04:56:53;16.30;99.90
59855;DHT22;45732;52.850;6.896;2023-07-08T04:59:22;16.30;99.90
59855;DHT22;45732;52.850;6.896;2023-07-08T05:01:48;16.40;99.90
59855;DHT22;45732;52.850;6.896;2023-07-08T05:04:16;16.40;99.90
59855;DHT22;45732;52.850;6.896;2023-07-08T05:06:42;16.50;99.90
59855;DHT22;45732;52.850;6.896;2023-07-08T05:09:08;16.60;99.90
59855;DHT22;45732;52.850;6.896;2023-07-08T05:11:35;16.60;99.90
59855;DHT22;45732;52.850;6.896;2023-07-08T05:14:02;16.70;99.90
59855;DHT22;45732;52.850;6.896;2023-07-08T05:16:28;16.80;99.90
59855;DHT22;45732;52.850;6.896;2023-07-08T05:18:54;16.80;99.90
59855;DHT22;45732;52.850;6.896;2023-07-08T05:21:20;16.90;99.90
59855;DHT22;45732;52.850;6.896;2023-07-08T05:23:47;16.90;99.90
59855;DHT22;45732;52.850;6.896;2023-07-08T05:26:15;17.00;99.90
59855;DHT22;45732;52.850;6.896;2023-07-08T05:28:41;17.00;99.90
59855;DHT22;45732;52.850;6.896;2023-07-08T05:31:07;17.00;99.90
59855;DHT22;45732;52.850;6.896;2023-07-08T05:33:33;17.10;99.90
59855;DHT22;45732;52.850;6.896;2023-07-08T05:35:59;17.20;99.90
59855;DHT22;45732;52.850;6.896;2023-07-08T05:38:26;17.20;99.90
59855;DHT22;45732;52.850;6.896;2023-07-08T05:40:57;17.30;99.90
59855;DHT22;45732;52.850;6.896;2023-07-08T05:43:24;17.30;99.90
59855;DHT22;45732;52.850;6.896;2023-07-08T05:45:50;17.40;99.90
59855;DHT22;45732;52.850;6.896;2023-07-08T05:48:16;17.40;99.90
59855;DHT22;45732;52.850;6.896;2023-07-08T05:50:41;17.50;99.90
59855;DHT22;45732;52.850;6.896;2023-07-08T05:53:10;17.60;99.90
59855;DHT22;45732;52.850;6.896;2023-07-08T05:55:37;17.70;99.90
59855;DHT22;45732;52.850;6.896;2023-07-08T05:58:02;17.80;99.90
59855;DHT22;45732;52.850;6.896;2023-07-08T06:00:28;17.80;99.90
59855;DHT22;45732;52.850;6.896;2023-07-08T06:02:54;17.90;99.90
59855;DHT22;45732;52.850;6.896;2023-07-08T06:05:20;18.00;99.90
59855;DHT22;45732;52.850;6.896;2023-07-08T06:07:45;18.00;99.90
59855;DHT22;45732;52.850;6.896;2023-07-08T06:10:11;18.10;99.90
59855;DHT22;45732;52.850;6.896;2023-07-08T06:12:37;18.10;99.90
59855;DHT22;45732;52.850;6.896;2023-07-08T06:15:03;18.30;99.90
59855;DHT22;45732;52.850;6.896;2023-07-08T06:17:29;18.30;99.90
59855;DHT22;45732;52.850;6.896;2023-07-08T06:19:54;18.40;99.90
59855;DHT22;45732;52.850;6.896;2023-07-08T06:22:20;18.40;99.90
59855;DHT22;45732;52.850;6.896;2023-07-08T06:24:46;18.50;99.90
59855;DHT22;45732;52.850;6.896;2023-07-08T06:27:13;18.60;99.90
59855;DHT22;45732;52.850;6.896;2023-07-08T06:29:39;18.70;99.90
59855;DHT22;45732;52.850;6.896;2023-07-08T06:32:05;18.70;99.90
59855;DHT22;45732;52.850;6.896;2023-07-08T06:34:31;18.80;99.90
59855;DHT22;45732;52.850;6.896;2023-07-08T06:36:57;18.90;99.90
59855;DHT22;45732;52.850;6.896;2023-07-08T06:39:23;18.90;99.90
59855;DHT22;45732;52.850;6.896;2023-07-08T06:41:48;19.00;99.90
59855;DHT22;45732;52.850;6.896;2023-07-08T06:44:14;19.10;99.90
59855;DHT22;45732;52.850;6.896;2023-07-08T06:46:40;19.20;99.90
59855;DHT22;45732;52.850;6.896;2023-07-08T06:49:06;19.20;99.90
59855;DHT22;45732;52.850;6.896;2023-07-08T06:51:34;19.30;99.90
59855;DHT22;45732;52.850;6.896;2023-07-08T06:54:01;19.30;99.90
59855;DHT22;45732;52.850;6.896;2023-07-08T06:56:30;19.40;99.90
59855;DHT22;45732;52.850;6.896;2023-07-08T06:58:56;19.50;99.90
59855;DHT22;45732;52.850;6.896;2023-07-08T07:01:22;19.60;99.90
59855;DHT22;45732;52.850;6.896;2023-07-08T07:03:48;19.60;99.90
59855;DHT22;45732;52.850;6.896;2023-07-08T07:06:13;19.70;99.90
59855;DHT22;45732;52.850;6.896;2023-07-08T07:08:39;19.80;99.90
59855;DHT22;45732;52.850;6.896;2023-07-08T07:11:05;19.80;99.90
59855;DHT22;45732;52.850;6.896;2023-07-08T07:13:30;19.90;99.90
59855;DHT22;45732;52.850;6.896;2023-07-08T07:15:58;20.00;99.90
59855;DHT22;45732;52.850;6.896;2023-07-08T07:18:23;20.00;99.90
59855;DHT22;45732;52.850;6.896;2023-07-08T07:20:52;20.10;99.90
59855;DHT22;45732;52.850;6.896;2023-07-08T07:23:19;20.20;99.90
59855;DHT22;45732;52.850;6.896;2023-07-08T07:25:46;20.30;99.90
59855;DHT22;45732;52.850;6.896;2023-07-08T07:28:16;20.40;99.90
59855;DHT22;45732;52.850;6.896;2023-07-08T07:30:45;20.50;99.90
59855;DHT22;45732;52.850;6.896;2023-07-08T07:33:12;20.50;99.90
59855;DHT22;45732;52.850;6.896;2023-07-08T07:35:44;20.60;99.90
59855;DHT22;45732;52.850;6.896;2023-07-08T07:38:10;20.60;99.90
59855;DHT22;45732;52.850;6.896;2023-07-08T07:40:36;20.70;99.90
59855;DHT22;45732;52.850;6.896;2023-07-08T07:43:01;20.80;99.90
59855;DHT22;45732;52.850;6.896;2023-07-08T07:45:27;20.90;99.90
59855;DHT22;45732;52.850;6.896;2023-07-08T07:47:53;20.90;99.90
59855;DHT22;45732;52.850;6.896;2023-07-08T07:50:19;21.00;99.90
59855;DHT22;45732;52.850;6.896;2023-07-08T07:52:44;21.00;99.90
59855;DHT22;45732;52.850;6.896;2023-07-08T07:55:10;21.20;99.90
59855;DHT22;45732;52.850;6.896;2023-07-08T07:57:36;21.20;99.90
59855;DHT22;45732;52.850;6.896;2023-07-08T08:00:02;21.30;99.90
59855;DHT22;45732;52.850;6.896;2023-07-08T08:02:29;21.30;99.90
59855;DHT22;45732;52.850;6.896;2023-07-08T08:04:54;21.40;99.90
59855;DHT22;45732;52.850;6.896;2023-07-08T08:07:20;21.50;99.90
59855;DHT22;45732;52.850;6.896;2023-07-08T08:09:46;21.50;99.90
59855;DHT22;45732;52.850;6.896;2023-07-08T08:12:12;21.60;99.90
59855;DHT22;45732;52.850;6.896;2023-07-08T08:14:38;21.70;99.90
59855;DHT22;45732;52.850;6.896;2023-07-08T08:17:05;21.80;99.90
59855;DHT22;45732;52.850;6.896;2023-07-08T08:19:31;21.90;99.90
59855;DHT22;45732;52.850;6.896;2023-07-08T08:21:57;22.00;99.90
59855;DHT22;45732;52.850;6.896;2023-07-08T08:24:23;22.10;99.90
59855;DHT22;45732;52.850;6.896;2023-07-08T08:26:48;22.20;99.90
59855;DHT22;45732;52.850;6.896;2023-07-08T08:29:14;22.30;99.90
59855;DHT22;45732;52.850;6.896;2023-07-08T08:31:40;22.30;99.90
59855;DHT22;45732;52.850;6.896;2023-07-08T08:34:05;22.40;99.90
59855;DHT22;45732;52.850;6.896;2023-07-08T08:36:31;22.50;99.90
59855;DHT22;45732;52.850;6.896;2023-07-08T08:38:57;22.60;99.90
59855;DHT22;45732;52.850;6.896;2023-07-08T08:41:36;22.60;99.90
59855;DHT22;45732;52.850;6.896;2023-07-08T08:44:03;22.70;99.90
59855;DHT22;45732;52.850;6.896;2023-07-08T08:51:47;23.00;99.90
59855;DHT22;45732;52.850;6.896;2023-07-08T08:54:13;23.10;99.90
59855;DHT22;45732;52.850;6.896;2023-07-08T08:57:05;23.20;99.90
59855;DHT22;45732;52.850;6.896;2023-07-08T08:59:51;23.30;99.90
59855;DHT22;45732;52.850;6.896;2023-07-08T09:05:08;23.40;99.90
59855;DHT22;45732;52.850;6.896;2023-07-08T09:08:03;23.50;99.90
59855;DHT22;45732;52.850;6.896;2023-07-08T09:10:49;23.60;99.90
59855;DHT22;45732;52.850;6.896;2023-07-08T09:13:32;23.70;99.90
59855;DHT22;45732;52.850;6.896;2023-07-08T09:19:22;23.80;99.90
59855;DHT22;45732;52.850;6.896;2023-07-08T09:24:48;24.00;99.90
59855;DHT22;45732;52.850;6.896;2023-07-08T09:27:15;24.10;99.90
59855;DHT22;45732;52.850;6.896;2023-07-08T09:29:40;24.10;99.90
59855;DHT22;45732;52.850;6.896;2023-07-08T09:32:27;24.20;99.90
59855;DHT22;45732;52.850;6.896;2023-07-08T09:34:54;24.30;99.90
59855;DHT22;45732;52.850;6.896;2023-07-08T09:39:49;24.40;99.90
59855;DHT22;45732;52.850;6.896;2023-07-08T09:42:15;24.50;99.90
59855;DHT22;45732;52.850;6.896;2023-07-08T09:44:41;24.50;99.90
59855;DHT22;45732;52.850;6.896;2023-07-08T09:47:24;24.70;99.90
59855;DHT22;45732;52.850;6.896;2023-07-08T09:49:52;24.80;99.90
59855;DHT22;45732;52.850;6.896;2023-07-08T09:52:19;24.80;99.90
59855;DHT22;45732;52.850;6.896;2023-07-08T09:54:45;24.90;99.90
59855;DHT22;45732;52.850;6.896;2023-07-08T09:57:24;25.00;99.90
59855;DHT22;45732;52.850;6.896;2023-07-08T10:00:03;25.10;99.90
59855;DHT22;45732;52.850;6.896;2023-07-08T10:02:39;25.10;99.90
59855;DHT22;45732;52.850;6.896;2023-07-08T10:05:33;25.20;99.90
59855;DHT22;45732;52.850;6.896;2023-07-08T10:08:02;25.30;99.90
59855;DHT22;45732;52.850;6.896;2023-07-08T10:10:35;25.40;99.90
59855;DHT22;45732;52.850;6.896;2023-07-08T10:13:17;25.40;99.90
59855;DHT22;45732;52.850;6.896;2023-07-08T10:15:59;25.40;99.90
59855;DHT22;45732;52.850;6.896;2023-07-08T10:18:29;25.50;99.90
59855;DHT22;45732;52.850;6.896;2023-07-08T10:36:51;26.10;99.90
59855;DHT22;45732;52.850;6.896;2023-07-08T10:39:43;26.10;99.90
59855;DHT22;45732;52.850;6.896;2023-07-08T10:44:56;26.40;99.90
59855;DHT22;45732;52.850;6.896;2023-07-08T11:01:10;26.80;99.90
59855;DHT22;45732;52.850;6.896;2023-07-08T11:09:07;27.10;99.10
59855;DHT22;45732;52.850;6.896;2023-07-08T11:11:42;27.20;99.30
59855;DHT22;45732;52.850;6.896;2023-07-08T11:14:17;27.20;99.00
59855;DHT22;45732;52.850;6.896;2023-07-08T11:17:14;27.40;98.60
59855;DHT22;45732;52.850;6.896;2023-07-08T11:19:55;27.40;98.20
59855;DHT22;45732;52.850;6.896;2023-07-08T11:22:22;27.50;98.20
59855;DHT22;45732;52.850;6.896;2023-07-08T11:24:50;27.50;97.70
59855;DHT22;45732;52.850;6.896;2023-07-08T11:27:34;27.50;97.50
59855;DHT22;45732;52.850;6.896;2023-07-08T11:30:17;27.60;97.40
59855;DHT22;45732;52.850;6.896;2023-07-08T11:32:48;27.70;97.20
59855;DHT22;45732;52.850;6.896;2023-07-08T11:35:46;27.70;96.30
59855;DHT22;45732;52.850;6.896;2023-07-08T11:38:14;27.80;96.20
59855;DHT22;45732;52.850;6.896;2023-07-08T11:40:58;27.80;96.10
59855;DHT22;45732;52.850;6.896;2023-07-08T11:43:28;27.90;96.20
59855;DHT22;45732;52.850;6.896;2023-07-08T11:46:06;27.90;96.30
59855;DHT22;45732;52.850;6.896;2023-07-08T11:48:43;28.00;96.10
59855;DHT22;45732;52.850;6.896;2023-07-08T11:51:17;28.00;96.20
59855;DHT22;45732;52.850;6.896;2023-07-08T11:54:33;28.10;96.20
59855;DHT22;45732;52.850;6.896;2023-07-08T11:56:49;28.10;95.80
59855;DHT22;45732;52.850;6.896;2023-07-08T11:59:20;28.20;96.20
59855;DHT22;45732;52.850;6.896;2023-07-08T12:05:17;28.30;95.90
59855;DHT22;45732;52.850;6.896;2023-07-08T12:07:45;28.30;95.60
59855;DHT22;45732;52.850;6.896;2023-07-08T12:12:41;28.40;95.50
59855;DHT22;45732;52.850;6.896;2023-07-08T12:17:38;28.50;95.20
59855;DHT22;45732;52.850;6.896;2023-07-08T12:20:13;28.50;95.40
59855;DHT22;45732;52.850;6.896;2023-07-08T12:22:41;28.50;95.00
59855;DHT22;45732;52.850;6.896;2023-07-08T12:25:15;28.50;94.40
59855;DHT22;45732;52.850;6.896;2023-07-08T12:27:43;28.50;94.40
59855;DHT22;45732;52.850;6.896;2023-07-08T12:30:10;28.60;94.40
59855;DHT22;45732;52.850;6.896;2023-07-08T12:32:37;28.60;93.90
59855;DHT22;45732;52.850;6.896;2023-07-08T12:35:04;28.60;94.30
59855;DHT22;45732;52.850;6.896;2023-07-08T12:37:31;28.60;93.80
59855;DHT22;45732;52.850;6.896;2023-07-08T12:39:58;28.70;94.10
59855;DHT22;45732;52.850;6.896;2023-07-08T12:42:30;28.70;94.10
59855;DHT22;45732;52.850;6.896;2023-07-08T12:44:57;28.70;93.60
59855;DHT22;45732;52.850;6.896;2023-07-08T12:47:23;28.70;93.70
59855;DHT22;45732;52.850;6.896;2023-07-08T12:49:48;28.70;93.70
59855;DHT22;45732;52.850;6.896;2023-07-08T12:52:22;28.70;94.10
59855;DHT22;45732;52.850;6.896;2023-07-08T12:54:49;28.70;93.70
59855;DHT22;45732;52.850;6.896;2023-07-08T12:57:16;28.70;94.00
59855;DHT22;45732;52.850;6.896;2023-07-08T12:59:42;28.60;93.60
59855;DHT22;45732;52.850;6.896;2023-07-08T13:02:17;28.50;93.50
59855;DHT22;45732;52.850;6.896;2023-07-08T13:04:46;28.50;94.10
59855;DHT22;45732;52.850;6.896;2023-07-08T13:09:53;28.50;93.60
59855;DHT22;45732;52.850;6.896;2023-07-08T13:12:20;28.50;93.40
59855;DHT22;45732;52.850;6.896;2023-07-08T13:14:53;28.50;93.30
59855;DHT22;45732;52.850;6.896;2023-07-08T13:17:20;28.40;94.00
59855;DHT22;45732;52.850;6.896;2023-07-08T13:19:47;28.30;93.60
59855;DHT22;45732;52.850;6.896;2023-07-08T13:22:17;28.40;93.40
59855;DHT22;45732;52.850;6.896;2023-07-08T13:24:44;28.40;93.10
59855;DHT22;45732;52.850;6.896;2023-07-08T13:27:23;28.40;93.10
59855;DHT22;45732;52.850;6.896;2023-07-08T13:29:54;28.40;93.50
59855;DHT22;45732;52.850;6.896;2023-07-08T13:32:30;28.40;93.70
59855;DHT22;45732;52.850;6.896;2023-07-08T13:34:56;28.40;94.00
59855;DHT22;45732;52.850;6.896;2023-07-08T13:37:22;28.40;93.20
59855;DHT22;45732;52.850;6.896;2023-07-08T13:39:53;28.30;91.80
59855;DHT22;45732;52.850;6.896;2023-07-08T13:42:19;28.20;92.00
59855;DHT22;45732;52.850;6.896;2023-07-08T13:44:46;28.20;92.20
59855;DHT22;45732;52.850;6.896;2023-07-08T13:47:27;28.20;91.90
59855;DHT22;45732;52.850;6.896;2023-07-08T13:50:07;28.20;91.50
59855;DHT22;45732;52.850;6.896;2023-07-08T13:52:37;28.20;91.00
59855;DHT22;45732;52.850;6.896;2023-07-08T13:55:15;28.20;90.90
59855;DHT22;45732;52.850;6.896;2023-07-08T13:57:42;28.20;91.80
59855;DHT22;45732;52.850;6.896;2023-07-08T14:00:08;28.20;91.40
59855;DHT22;45732;52.850;6.896;2023-07-08T14:02:34;28.10;91.30
59855;DHT22;45732;52.850;6.896;2023-07-08T14:05:00;28.10;91.40
59855;DHT22;45732;52.850;6.896;2023-07-08T14:07:32;28.10;91.00
59855;DHT22;45732;52.850;6.896;2023-07-08T14:09:58;28.10;90.80
59855;DHT22;45732;52.850;6.896;2023-07-08T14:12:24;28.10;91.30
59855;DHT22;45732;52.850;6.896;2023-07-08T14:14:50;28.20;91.40
59855;DHT22;45732;52.850;6.896;2023-07-08T14:17:22;28.10;90.60
59855;DHT22;45732;52.850;6.896;2023-07-08T14:19:48;28.10;90.20
59855;DHT22;45732;52.850;6.896;2023-07-08T14:24:41;28.10;90.60
59855;DHT22;45732;52.850;6.896;2023-07-08T14:27:08;28.10;90.40
59855;DHT22;45732;52.850;6.896;2023-07-08T14:29:42;28.10;90.90
59855;DHT22;45732;52.850;6.896;2023-07-08T14:32:15;28.10;91.00
59855;DHT22;45732;52.850;6.896;2023-07-08T14:34:42;28.10;90.80
59855;DHT22;45732;52.850;6.896;2023-07-08T14:37:16;28.10;90.70
59855;DHT22;45732;52.850;6.896;2023-07-08T14:39:44;28.10;90.50
59855;DHT22;45732;52.850;6.896;2023-07-08T14:42:12;28.10;90.80
59855;DHT22;45732;52.850;6.896;2023-07-08T14:44:40;28.10;90.90
59855;DHT22;45732;52.850;6.896;2023-07-08T14:47:12;28.20;90.80
59855;DHT22;45732;52.850;6.896;2023-07-08T14:49:39;28.20;90.30
59855;DHT22;45732;52.850;6.896;2023-07-08T14:52:05;28.20;90.40
59855;DHT22;45732;52.850;6.896;2023-07-08T14:54:31;28.30;90.50
59855;DHT22;45732;52.850;6.896;2023-07-08T14:56:57;28.30;90.70
59855;DHT22;45732;52.850;6.896;2023-07-08T14:59:24;28.30;90.20
59855;DHT22;45732;52.850;6.896;2023-07-08T15:01:52;28.40;90.40
59855;DHT22;45732;52.850;6.896;2023-07-08T15:04:19;28.30;90.40
59855;DHT22;45732;52.850;6.896;2023-07-08T15:06:45;28.40;90.20
59855;DHT22;45732;52.850;6.896;2023-07-08T15:09:12;28.50;90.00
59855;DHT22;45732;52.850;6.896;2023-07-08T15:11:40;28.50;90.60
59855;DHT22;45732;52.850;6.896;2023-07-08T15:14:21;28.50;90.70
59855;DHT22;45732;52.850;6.896;2023-07-08T15:16:49;28.50;90.80
59855;DHT22;45732;52.850;6.896;2023-07-08T15:19:16;28.60;90.80
59855;DHT22;45732;52.850;6.896;2023-07-08T15:21:41;28.60;91.10
59855;DHT22;45732;52.850;6.896;2023-07-08T15:24:09;28.60;90.90
59855;DHT22;45732;52.850;6.896;2023-07-08T15:26:39;28.60;90.70
59855;DHT22;45732;52.850;6.896;2023-07-08T15:29:15;28.70;90.30
59855;DHT22;45732;52.850;6.896;2023-07-08T15:31:41;28.80;90.50
59855;DHT22;45732;52.850;6.896;2023-07-08T15:34:14;28.80;90.10
59855;DHT22;45732;52.850;6.896;2023-07-08T15:36:40;28.80;90.20
59855;DHT22;45732;52.850;6.896;2023-07-08T15:39:06;28.90;90.50
59855;DHT22;45732;52.850;6.896;2023-07-08T15:41:32;28.90;90.50
59855;DHT22;45732;52.850;6.896;2023-07-08T15:43:59;29.00;90.20
59855;DHT22;45732;52.850;6.896;2023-07-08T15:46:31;29.10;90.20
59855;DHT22;45732;52.850;6.896;2023-07-08T15:48:57;29.30;90.70
59855;DHT22;45732;52.850;6.896;2023-07-08T15:51:23;29.40;90.10
59855;DHT22;45732;52.850;6.896;2023-07-08T15:53:49;29.60;89.60
59855;DHT22;45732;52.850;6.896;2023-07-08T15:56:18;29.70;89.40
59855;DHT22;45732;52.850;6.896;2023-07-08T15:58:44;29.90;89.90
59855;DHT22;45732;52.850;6.896;2023-07-08T16:01:17;30.10;90.00
59855;DHT22;45732;52.850;6.896;2023-07-08T16:03:43;30.40;90.00
59855;DHT22;45732;52.850;6.896;2023-07-08T16:06:09;30.80;88.40
59855;DHT22;45732;52.850;6.896;2023-07-08T16:08:35;31.30;88.40
59855;DHT22;45732;52.850;6.896;2023-07-08T16:11:03;31.80;87.30
59855;DHT22;45732;52.850;6.896;2023-07-08T16:13:33;32.20;86.80
59855;DHT22;45732;52.850;6.896;2023-07-08T16:16:00;32.70;85.80
59855;DHT22;45732;52.850;6.896;2023-07-08T16:18:26;33.20;85.40
59855;DHT22;45732;52.850;6.896;2023-07-08T16:20:52;33.40;85.40
59855;DHT22;45732;52.850;6.896;2023-07-08T16:23:18;33.80;85.80
59855;DHT22;45732;52.850;6.896;2023-07-08T16:25:47;34.00;85.50
59855;DHT22;45732;52.850;6.896;2023-07-08T16:28:43;33.80;84.90
59855;DHT22;45732;52.850;6.896;2023-07-08T16:31:13;33.20;83.50
59855;DHT22;45732;52.850;6.896;2023-07-08T16:33:40;32.80;84.00
59855;DHT22;45732;52.850;6.896;2023-07-08T16:36:14;32.50;83.80
59855;DHT22;45732;52.850;6.896;2023-07-08T16:38:41;32.10;84.10
59855;DHT22;45732;52.850;6.896;2023-07-08T16:41:12;31.80;83.50
59855;DHT22;45732;52.850;6.896;2023-07-08T16:43:38;31.90;83.60
59855;DHT22;45732;52.850;6.896;2023-07-08T16:46:04;32.00;84.70
59855;DHT22;45732;52.850;6.896;2023-07-08T16:48:30;32.10;84.50
59855;DHT22;45732;52.850;6.896;2023-07-08T16:50:56;32.50;84.30
59855;DHT22;45732;52.850;6.896;2023-07-08T16:53:22;32.90;84.70
59855;DHT22;45732;52.850;6.896;2023-07-08T16:55:48;33.30;84.70
59855;DHT22;45732;52.850;6.896;2023-07-08T16:58:14;33.80;83.60